METAR AND TAF INFORMATION
METAR FOR EDDW
ADDS - METARS form results

(2315 UTC 21 April 2018)
Data provider http://aviationweather.gov/adds/metars/
 
METAR text: EDDW 212250Z AUTO 07003KT 9999 // NCD 09/05 Q1020
Conditions at: EDDW (BREMEN , DE) observed 2250 UTC 21 April 2018
Temperature: 9.0°C (48°F)
Dewpoint: 5.0°C (41°F) [RH = 76%]
Pressure (altimeter): 30.12 inches Hg (1020.0 mb)
Winds: from the ENE (70 degrees) at 3 MPH (3 knots; 1.6 m/s)
Visibility: 6 or more miles (10+ km)
Ceiling: at least 12,000 feet AGL
Clouds: sky clear below 12,000 feet AGL
Weather: no significant weather observed at this time

METAR text: EDDW 212220Z 05004KT CAVOK 10/05 Q1020
Conditions at: EDDW (BREMEN , DE) observed 2220 UTC 21 April 2018
Temperature: 10.0°C (50°F)
Dewpoint: 5.0°C (41°F) [RH = 71%]
Pressure (altimeter): 30.12 inches Hg (1020.0 mb)
Winds: from the NE (50 degrees) at 5 MPH (4 knots; 2.1 m/s)
Visibility: 6 or more miles (10+ km)
Ceiling: ceiling and visibility are OK
Clouds: unknown
Weather: no significant weather observed at this time

Forecast for: EDDW (BREMEN , DE)
Text: TAF EDDW 211700Z 2118/2218 36006KT CAVOK
Forecast period: 1800 UTC 21 April 2018 to 1800 UTC 22 April 2018
Forecast type: FROM: standard forecast or significant change
Winds: from the N (360 degrees) at 7 MPH (6 knots; 3.1 m/s)
Visibility: 6 or more miles (10+ km)
Clouds: not forecast
Weather: NSW  (no significant weather)
Forecast for: EDDW (BREMEN , DE)
Text: TAF EDDW 211700Z 2118/2218 36006KT CAVOK
Forecast period: 1800 UTC 21 April 2018 to 1800 UTC 22 April 2018
Forecast type: FROM: standard forecast or significant change
Winds: from the N (360 degrees) at 7 MPH (6 knots; 3.1 m/s)
Visibility: 6 or more miles (10+ km)
Clouds: not forecast
Weather: NSW  (no significant weather)
Forecast for: EDDW (BREMEN , DE)
Text: TAF EDDW 211700Z 2118/2218 36006KT CAVOK
Forecast period: 1800 UTC 21 April 2018 to 0000 UTC 22 April 2018
Forecast type: BECOMING: Conditions expected to become as follows by 2000 UTC 21 April 2018
Winds: variable direction winds at 3 MPH (3 knots; 1.6 m/s)
Visibility: 6 or more miles (10+ km)
Weather: NSW  (no significant weather)
Forecast for: EDDW (BREMEN , DE)
Text: TAF EDDW 211700Z 2118/2218 36006KT CAVOK
Forecast period: 1800 UTC 21 April 2018 to 0000 UTC 22 April 2018
Forecast type: BECOMING: Conditions expected to become as follows by 2000 UTC 21 April 2018
Winds: variable direction winds at 3 MPH (3 knots; 1.6 m/s)
Visibility: 6 or more miles (10+ km)
Weather: NSW  (no significant weather)
Forecast for: EDDW (BREMEN , DE)
Text: TAF EDDW 211700Z 2118/2218 36006KT CAVOK
Forecast period: 0000 to 0500 UTC 22 April 2018
Forecast type: BECOMING: Conditions expected to become as follows by 0300 UTC 22 April 2018
Winds: variable direction winds at 3 MPH (3 knots; 1.6 m/s)
Visibility: 2.49 miles (4.01 km)
Weather: BR  (mist)
Forecast for: EDDW (BREMEN , DE)
Text: TAF EDDW 211700Z 2118/2218 36006KT CAVOK
Forecast period: 0000 to 0500 UTC 22 April 2018
Forecast type: BECOMING: Conditions expected to become as follows by 0300 UTC 22 April 2018
Winds: variable direction winds at 3 MPH (3 knots; 1.6 m/s)
Visibility: 2.49 miles (4.01 km)
Weather: BR  (mist)
Forecast for: EDDW (BREMEN , DE)
Text: TAF EDDW 211700Z 2118/2218 36006KT CAVOK
Forecast period: 0300 to 0500 UTC 22 April 2018
Forecast type: TEMPORARY: The following changes expected for less than half the time period
Visibility: 1.24 miles (2.00 km)
Weather: BCFG  (patches of fog)
Forecast for: EDDW (BREMEN , DE)
Text: TAF EDDW 211700Z 2118/2218 36006KT CAVOK
Forecast period: 0300 to 0500 UTC 22 April 2018
Forecast type: TEMPORARY: The following changes expected for less than half the time period
Visibility: 1.24 miles (2.00 km)
Weather: BCFG  (patches of fog)
Forecast for: EDDW (BREMEN , DE)
Text: TAF EDDW 211700Z 2118/2218 36006KT CAVOK
Forecast period: 0500 to 1600 UTC 22 April 2018
Forecast type: BECOMING: Conditions expected to become as follows by 0800 UTC 22 April 2018
Winds: from the ESE (120 degrees) at 12 MPH (10 knots; 5.2 m/s)
Visibility: 6 or more miles (10+ km)
Weather: BR  (mist)
Forecast for: EDDW (BREMEN , DE)
Text: TAF EDDW 211700Z 2118/2218 36006KT CAVOK
Forecast period: 0500 to 1600 UTC 22 April 2018
Forecast type: BECOMING: Conditions expected to become as follows by 0800 UTC 22 April 2018
Winds: from the ESE (120 degrees) at 12 MPH (10 knots; 5.2 m/s)
Visibility: 6 or more miles (10+ km)
Weather: BR  (mist)
Forecast for: EDDW (BREMEN , DE)
Text: TAF EDDW 211700Z 2118/2218 36006KT CAVOK
Forecast period: 1500 to 1800 UTC 22 April 2018
Forecast type: TEMPORARY: The following changes expected for less than half the time period
Winds: from the SW (230 degrees) at 17 MPH (15 knots; 7.8 m/s)
gusting to 29 MPH (25 knots; 13.0 m/s)
Ceiling: 4000 feet AGL
Clouds: broken clouds at 4000 feet AGL
Weather: TSRA  (rain associated with thunderstorm(s))
Forecast for: EDDW (BREMEN , DE)
Text: TAF EDDW 211700Z 2118/2218 36006KT CAVOK
Forecast period: 1500 to 1800 UTC 22 April 2018
Forecast type: TEMPORARY: The following changes expected for less than half the time period
Winds: from the SW (230 degrees) at 17 MPH (15 knots; 7.8 m/s)
gusting to 29 MPH (25 knots; 13.0 m/s)
Ceiling: 4000 feet AGL
Clouds: broken clouds at 4000 feet AGL
Weather: TSRA  (rain associated with thunderstorm(s))
Forecast for: EDDW (BREMEN , DE)
Text: TAF EDDW 211700Z 2118/2218 36006KT CAVOK
Forecast period: 1600 to 1800 UTC 22 April 2018
Forecast type: BECOMING: Conditions expected to become as follows by 1800 UTC 22 April 2018
Winds: from the SSW (200 degrees) at 7 MPH (6 knots; 3.1 m/s)
Visibility: 6 or more miles (10+ km)
Weather: BR  (mist)
Forecast for: EDDW (BREMEN , DE)
Text: TAF EDDW 211700Z 2118/2218 36006KT CAVOK
Forecast period: 1600 to 1800 UTC 22 April 2018
Forecast type: BECOMING: Conditions expected to become as follows by 1800 UTC 22 April 2018
Winds: from the SSW (200 degrees) at 7 MPH (6 knots; 3.1 m/s)
Visibility: 6 or more miles (10+ km)
Weather: BR  (mist)

 AIRPORT MAP

 RUNWAY INFORMATION
Runway 05 Runway length 2297 ft Runway width 75 ft
Runway elevation 0 ft Runway displaced threshold 0 ft Runway heading 52
Runway 23 Runway length 2297 ft Runway width 75 ft
Runway elevation 13 ft Runway displaced threshold 0 ft Runway heading 232
Runway 09 Runway length 6693 ft Runway width 148 ft
Runway elevation 13 ft Runway displaced threshold 0 ft Runway heading 88
Runway 27 Runway length 6693 ft Runway width 148 ft
Runway elevation 14 ft Runway displaced threshold 0 ft Runway heading 268

 AIRPORT FREQUENCIES
Type AFIS Name INFO Frequency 125.1 MHZ
Type APP Name RADAR Frequency 124.8 MHZ
Type ATIS Name ATIS Frequency 117.45 MHZ
Type GND Name GND Frequency 121.75 MHZ
Type TWR Name TWR Frequency 120.325 MHZ

 AIRPORT NEAR NAVIGATION AIDS
Type VOR-DME Name Bremen Frequency 117450 KHZ



© 2017-2018 LuxairVA.com | All Rights Reserved |